Terminal Aerodrome Forecast
Issued by NWS

Home | Current Version | Previous Version | Graphics & Text | Print | Product List | Glossary On
Versions: 1 2 3 4 5 6 7 8 9 10 11 12 13 14
000
FTUS43 KGRB 050201 AAA
TAFCWA
TAF AMD
KCWA 050201Z 0502/0524 16003KT 6SM FU SCT250
      TEMPO 0509/0513 3SM BR
     FM051400 20008KT 6SM HZ SCT040
     FM051900 19010G18KT P6SM SCT045=

USA.gov is the U.S. government's official web portal to all federal, state and local government web resources and services.